createdAt,value
2018-03-04T00:01:57.564Z,49.43
2018-03-04T00:04:25.184Z,51.60
2018-03-04T00:06:52.763Z,51.17
2018-03-04T00:09:20.494Z,52.00
2018-03-04T00:11:48.163Z,49.63
2018-03-04T00:14:15.789Z,52.10
2018-03-04T00:16:43.355Z,48.80
2018-03-04T00:19:11.025Z,40.97
2018-03-04T00:21:38.795Z,52.10
2018-03-04T00:24:06.375Z,33.90
2018-03-04T00:26:33.951Z,54.43
2018-03-04T00:29:01.566Z,26.60
2018-03-04T00:31:29.247Z,48.40
2018-03-04T00:33:56.820Z,47.10
2018-03-04T00:36:24.438Z,47.60
2018-03-04T00:38:52.010Z,48.07
2018-03-04T00:41:19.605Z,53.17
2018-03-04T00:43:47.437Z,57.00
2018-03-04T00:46:15.011Z,49.47
2018-03-04T00:48:42.596Z,45.57
2018-03-04T00:51:10.243Z,45.67
2018-03-04T00:53:37.830Z,49.70
2018-03-04T00:56:05.614Z,46.57
2018-03-04T00:58:33.279Z,56.20
2018-03-04T01:01:00.852Z,55.13
2018-03-04T01:03:28.516Z,55.40
2018-03-04T01:05:56.273Z,54.67
2018-03-04T01:08:23.874Z,43.17
2018-03-04T01:10:51.766Z,52.87
2018-03-04T01:13:19.398Z,39.47
2018-03-04T01:15:47.216Z,48.97
2018-03-04T01:18:15.096Z,50.47
2018-03-04T01:20:42.669Z,51.80
2018-03-04T01:23:10.266Z,52.63
2018-03-04T01:25:37.903Z,49.23
2018-03-04T01:28:05.534Z,51.63
2018-03-04T01:30:33.238Z,49.20
2018-03-04T01:33:00.939Z,47.87
2018-03-04T01:35:28.725Z,47.57
2018-03-04T01:37:56.605Z,44.40
2018-03-04T01:40:24.266Z,51.83
2018-03-04T01:42:52.160Z,40.07
2018-03-04T01:45:19.883Z,38.80
2018-03-04T01:47:47.720Z,46.43
2018-03-04T01:50:15.346Z,44.47
2018-03-04T01:52:42.964Z,42.27
2018-03-04T01:55:10.550Z,51.73
2018-03-04T01:57:38.188Z,46.23
2018-03-04T02:00:05.779Z,53.87
2018-03-04T02:02:33.449Z,38.60
2018-03-04T02:05:01.065Z,48.93
2018-03-04T02:07:28.807Z,48.37
2018-03-04T02:09:56.467Z,36.87
2018-03-04T02:12:24.159Z,47.37
2018-03-04T02:14:51.828Z,52.73
2018-03-04T02:17:19.435Z,41.80
2018-03-04T02:19:47.068Z,42.30
2018-03-04T02:22:14.865Z,37.70
2018-03-04T02:24:42.465Z,48.80
2018-03-04T02:27:10.100Z,52.27
2018-03-04T02:29:37.892Z,24.10
2018-03-04T02:32:05.471Z,51.73
2018-03-04T02:34:33.241Z,45.23
2018-03-04T02:37:01.124Z,33.03
2018-03-04T02:39:28.791Z,57.30
2018-03-04T02:41:56.366Z,50.33
2018-03-04T02:44:23.974Z,47.63
2018-03-04T02:46:51.611Z,44.67
2018-03-04T02:49:19.259Z,47.77
2018-03-04T02:51:46.911Z,46.63
2018-03-04T02:54:14.479Z,32.87
2018-03-04T02:56:42.322Z,46.60
2018-03-04T02:59:09.955Z,44.40
2018-03-04T03:01:37.541Z,49.57
2018-03-04T03:04:05.232Z,36.23
2018-03-04T03:06:32.814Z,52.43
2018-03-04T03:09:00.492Z,38.17
2018-03-04T03:11:28.272Z,41.13
2018-03-04T03:13:55.869Z,43.63
2018-03-04T03:16:23.479Z,46.37
2018-03-04T03:18:51.067Z,48.07
2018-03-04T03:21:18.780Z,48.10
2018-03-04T03:23:46.399Z,48.37
2018-03-04T03:26:14.106Z,49.23
2018-03-04T03:28:41.670Z,47.80
2018-03-04T03:31:09.406Z,50.80
2018-03-04T03:33:37.246Z,33.90
2018-03-04T03:36:05.129Z,50.10
2018-03-04T03:38:32.799Z,37.33
2018-03-04T03:41:00.683Z,48.93
2018-03-04T03:43:28.351Z,33.63
2018-03-04T03:45:56.011Z,48.67
2018-03-04T03:48:23.637Z,43.23
2018-03-04T03:50:51.388Z,44.47
2018-03-04T03:53:18.960Z,44.77
2018-03-04T03:55:46.735Z,44.03
2018-03-04T03:58:14.462Z,36.40
2018-03-04T04:00:42.040Z,46.27
2018-03-04T04:03:09.629Z,43.07
2018-03-04T04:05:37.275Z,44.97
2018-03-04T04:08:04.899Z,50.13
2018-03-04T04:10:32.471Z,42.97
2018-03-04T04:13:00.085Z,47.20
2018-03-04T04:15:27.707Z,41.70
2018-03-04T04:17:55.403Z,45.20
2018-03-04T04:20:23.071Z,28.33
2018-03-04T04:22:50.741Z,45.80
2018-03-04T04:25:18.417Z,43.03
2018-03-04T04:27:46.058Z,56.07
2018-03-04T04:30:13.641Z,42.70
2018-03-04T04:32:41.215Z,32.70
2018-03-04T04:35:08.920Z,49.37
2018-03-04T04:37:36.491Z,47.03
2018-03-04T04:40:04.178Z,34.23
2018-03-04T04:42:31.846Z,52.83
2018-03-04T04:44:59.441Z,43.50
2018-03-04T04:47:27.042Z,42.53
2018-03-04T04:49:54.773Z,46.70
2018-03-04T04:52:22.399Z,31.20
2018-03-04T04:54:49.974Z,42.20
2018-03-04T04:57:17.699Z,27.43
2018-03-04T04:59:45.372Z,41.37
2018-03-04T05:02:13.151Z,50.53
2018-03-04T05:04:41.034Z,47.10
2018-03-04T05:07:08.706Z,34.57
2018-03-04T05:09:36.485Z,45.47
2018-03-04T05:12:04.262Z,33.83
2018-03-04T05:14:32.858Z,30.53
2018-03-04T05:17:00.526Z,41.07
2018-03-04T05:19:28.104Z,35.33
2018-03-04T05:21:55.716Z,47.90
2018-03-04T05:24:23.388Z,49.73
2018-03-04T05:26:51.022Z,50.03
2018-03-04T05:29:18.699Z,46.47
2018-03-04T05:31:46.485Z,34.20
2018-03-04T05:34:14.088Z,34.93
2018-03-04T05:36:41.836Z,49.97
2018-03-04T05:39:09.606Z,44.67
2018-03-04T05:41:37.278Z,51.10
2018-03-04T05:44:04.861Z,43.67
2018-03-04T05:46:32.495Z,49.00
2018-03-04T05:49:00.103Z,54.67
2018-03-04T05:51:27.780Z,43.60
2018-03-04T05:53:55.499Z,52.63
2018-03-04T05:56:23.136Z,45.47
2018-03-04T05:58:50.815Z,37.87
2018-03-04T06:01:18.485Z,47.63
2018-03-04T06:03:46.155Z,30.43
2018-03-04T06:06:13.944Z,46.23
2018-03-04T06:08:41.575Z,52.93
2018-03-04T06:11:09.366Z,46.93
2018-03-04T06:13:38.096Z,31.97
2018-03-04T06:16:05.874Z,41.93
2018-03-04T06:18:33.647Z,48.07
2018-03-04T06:21:01.233Z,28.60
2018-03-04T06:23:29.072Z,42.43
2018-03-04T06:25:56.765Z,50.40
2018-03-04T06:28:24.556Z,39.00
2018-03-04T06:30:52.321Z,52.10
2018-03-04T06:33:19.892Z,52.60
2018-03-04T06:35:47.687Z,52.00
2018-03-04T06:38:15.290Z,55.17
2018-03-04T06:40:42.864Z,55.80
2018-03-04T06:43:10.494Z,50.77
2018-03-04T06:45:38.063Z,52.83
2018-03-04T06:48:05.638Z,54.80
2018-03-04T06:50:33.431Z,57.37
2018-03-04T06:53:01.208Z,51.47
2018-03-04T06:55:28.933Z,49.33
2018-03-04T06:57:56.660Z,43.07
2018-03-04T07:00:24.392Z,50.10
2018-03-04T07:02:52.058Z,49.97
2018-03-04T07:05:19.892Z,52.70
2018-03-04T07:07:47.454Z,28.57
2018-03-04T07:10:15.207Z,58.27
2018-03-04T07:12:42.919Z,38.27
2018-03-04T07:15:10.575Z,44.23
2018-03-04T07:17:38.147Z,45.70
2018-03-04T07:20:05.848Z,40.83
2018-03-04T07:22:33.511Z,50.63
2018-03-04T07:25:01.096Z,32.90
2018-03-04T07:27:28.736Z,50.03
2018-03-04T07:29:56.303Z,39.80
2018-03-04T07:32:23.890Z,42.80
2018-03-04T07:34:51.579Z,46.47
2018-03-04T07:37:19.256Z,50.20
2018-03-04T07:39:46.887Z,45.07
2018-03-04T07:42:14.615Z,50.80
2018-03-04T07:44:42.389Z,55.67
2018-03-04T07:47:10.052Z,55.67
2018-03-04T07:49:37.730Z,44.60
2018-03-04T07:52:05.416Z,54.73
2018-03-04T07:54:33.059Z,54.90
2018-03-04T07:57:00.650Z,52.63
2018-03-04T07:59:28.445Z,45.47
2018-03-04T08:01:56.119Z,44.37
2018-03-04T08:04:23.692Z,55.50
2018-03-04T08:06:51.262Z,54.17
2018-03-04T08:09:18.909Z,53.50
2018-03-04T08:11:46.498Z,47.40
2018-03-04T08:14:14.179Z,53.37
2018-03-04T08:16:41.855Z,55.10
2018-03-04T08:19:09.418Z,56.53
2018-03-04T08:21:36.983Z,48.77
2018-03-04T08:24:04.674Z,53.43
2018-03-04T08:26:44.185Z,57.80
2018-03-04T08:29:12.077Z,52.50
2018-03-04T08:31:39.639Z,55.07
2018-03-04T08:34:07.274Z,53.80
2018-03-04T08:36:34.942Z,58.97
2018-03-04T08:39:02.622Z,65.10
2018-03-04T08:41:30.238Z,58.27
2018-03-04T08:43:57.835Z,43.43
2018-03-04T08:46:25.519Z,68.70
2018-03-04T08:48:53.217Z,78.93
2018-03-04T08:51:20.882Z,54.30
2018-03-04T08:53:48.509Z,52.17
2018-03-04T08:56:16.079Z,59.30
2018-03-04T08:58:43.703Z,57.33
2018-03-04T09:01:11.481Z,61.93
2018-03-04T09:03:39.275Z,54.00
2018-03-04T09:06:06.877Z,49.70
2018-03-04T09:08:34.622Z,54.50
2018-03-04T09:11:02.298Z,55.20
2018-03-04T09:13:29.979Z,56.63
2018-03-04T09:15:57.651Z,54.93
2018-03-04T09:18:25.257Z,54.87
2018-03-04T09:20:52.871Z,51.13
2018-03-04T09:23:20.567Z,59.37
2018-03-04T09:25:48.339Z,41.00
2018-03-04T09:28:16.023Z,51.97
2018-03-04T09:30:43.586Z,56.53
2018-03-04T09:33:11.218Z,58.17
2018-03-04T09:35:38.884Z,55.13
2018-03-04T09:38:06.624Z,53.80
2018-03-04T09:40:34.355Z,51.07
2018-03-04T09:43:02.079Z,54.10
2018-03-04T09:45:29.800Z,53.93
2018-03-04T09:47:57.424Z,53.80
2018-03-04T09:50:25.138Z,52.47
2018-03-04T09:52:52.751Z,57.40
2018-03-04T09:55:20.444Z,53.33
2018-03-04T09:57:48.011Z,53.60
2018-03-04T10:00:15.580Z,56.57
2018-03-04T10:02:43.281Z,53.43
2018-03-04T10:05:10.943Z,53.47
2018-03-04T10:07:38.618Z,56.43
2018-03-04T10:10:06.263Z,56.93
2018-03-04T10:12:33.920Z,51.87
2018-03-04T10:15:01.608Z,54.73
2018-03-04T10:17:29.231Z,54.33
2018-03-04T10:19:56.817Z,54.73
2018-03-04T10:22:24.388Z,54.80
2018-03-04T10:24:51.991Z,55.20
2018-03-04T10:27:19.723Z,53.00
2018-03-04T10:29:47.380Z,50.87
2018-03-04T10:32:15.177Z,50.50
2018-03-04T10:34:42.916Z,54.37
2018-03-04T10:37:10.733Z,40.67
2018-03-04T10:39:38.411Z,55.73
2018-03-04T10:42:06.019Z,57.03
2018-03-04T10:44:33.587Z,56.67
2018-03-04T10:47:01.323Z,63.27
2018-03-04T10:49:28.901Z,53.53
2018-03-04T10:51:56.478Z,54.40
2018-03-04T10:54:24.360Z,54.40
2018-03-04T10:56:52.136Z,51.10
2018-03-04T10:59:19.800Z,54.17
2018-03-04T11:01:52.501Z,50.93
2018-03-04T11:04:20.180Z,53.57
2018-03-04T11:06:47.846Z,51.23
2018-03-04T11:09:15.531Z,52.07
2018-03-04T11:11:43.174Z,53.73
2018-03-04T11:14:10.758Z,52.33
2018-03-04T11:16:38.445Z,54.03
2018-03-04T11:19:06.068Z,53.37
2018-03-04T11:21:33.710Z,52.77
2018-03-04T11:24:01.286Z,53.10
2018-03-04T11:26:29.060Z,54.80
2018-03-04T11:28:56.775Z,53.07
2018-03-04T11:31:24.399Z,52.77
2018-03-04T11:33:52.045Z,36.07
2018-03-04T11:36:19.642Z,52.70
2018-03-04T11:38:47.330Z,49.10
2018-03-04T11:41:14.954Z,52.97
2018-03-04T11:43:42.685Z,51.50
2018-03-04T11:46:10.415Z,56.40
2018-03-04T11:48:38.095Z,51.87
2018-03-04T11:51:05.710Z,65.03
2018-03-04T11:53:33.375Z,52.90
2018-03-04T11:56:01.008Z,54.00
2018-03-04T11:58:28.617Z,50.57
2018-03-04T12:00:56.199Z,51.37
2018-03-04T12:03:23.831Z,48.17
2018-03-04T12:05:51.453Z,46.90
2018-03-04T12:08:19.123Z,53.17
2018-03-04T12:10:46.763Z,45.60
2018-03-04T12:13:14.372Z,49.10
2018-03-04T12:15:41.988Z,50.77
2018-03-04T12:18:09.780Z,51.00
2018-03-04T12:20:37.395Z,49.17
2018-03-04T12:23:05.073Z,53.07
2018-03-04T12:25:32.702Z,49.83
2018-03-04T12:28:00.307Z,49.33
2018-03-04T12:30:28.107Z,42.37
2018-03-04T12:32:55.764Z,49.30
2018-03-04T12:35:23.340Z,49.17
2018-03-04T12:37:50.916Z,49.80
2018-03-04T12:40:18.556Z,50.10
2018-03-04T12:42:46.119Z,49.37
2018-03-04T12:45:13.954Z,44.13
2018-03-04T12:47:41.607Z,50.20
2018-03-04T12:50:09.413Z,48.30
2018-03-04T12:52:37.023Z,47.97
2018-03-04T12:55:04.689Z,48.57
2018-03-04T12:57:32.435Z,48.90
2018-03-04T13:00:00.214Z,44.90
2018-03-04T13:02:27.930Z,47.17
2018-03-04T13:04:55.564Z,43.90
2018-03-04T13:07:23.236Z,45.07
2018-03-04T13:09:50.955Z,43.53
2018-03-04T13:12:18.590Z,45.67
2018-03-04T13:14:46.315Z,43.80
2018-03-04T13:17:13.915Z,46.83
2018-03-04T13:19:41.562Z,48.60
2018-03-04T13:22:09.189Z,48.30
2018-03-04T13:24:36.927Z,46.27
2018-03-04T13:27:04.570Z,48.10
2018-03-04T13:29:32.213Z,46.40
2018-03-04T13:31:59.782Z,43.53
2018-03-04T13:34:27.465Z,41.53
2018-03-04T13:36:55.080Z,43.40
2018-03-04T13:39:22.821Z,40.23
2018-03-04T13:41:50.455Z,43.33
2018-03-04T13:44:18.268Z,36.47
2018-03-04T13:46:46.046Z,35.27
2018-03-04T13:49:13.828Z,41.07
2018-03-04T13:51:41.462Z,39.07
2018-03-04T13:54:09.043Z,37.70
2018-03-04T13:56:36.645Z,31.50
2018-03-04T13:59:04.430Z,40.50
2018-03-04T14:01:32.101Z,42.60
2018-03-04T14:03:59.674Z,37.63
2018-03-04T14:06:27.454Z,41.70
2018-03-04T14:08:55.066Z,41.70
2018-03-04T14:11:22.795Z,38.30
2018-03-04T14:13:50.366Z,35.60
2018-03-04T14:16:17.954Z,37.90
2018-03-04T14:18:45.672Z,38.27
2018-03-04T14:21:13.290Z,39.97
2018-03-04T14:23:41.080Z,38.33
2018-03-04T14:26:08.688Z,36.57
2018-03-04T14:28:36.418Z,35.70
2018-03-04T14:31:04.001Z,37.57
2018-03-04T14:33:31.783Z,37.63
2018-03-04T14:35:59.391Z,38.67
2018-03-04T14:38:26.963Z,40.93
2018-03-04T14:40:54.704Z,38.50
2018-03-04T14:43:22.482Z,36.90
2018-03-04T14:45:50.147Z,39.50
2018-03-04T14:48:17.934Z,38.07
2018-03-04T14:50:45.598Z,37.40
2018-03-04T14:53:13.232Z,37.20
2018-03-04T14:55:40.795Z,35.77
2018-03-04T14:58:08.535Z,38.90
2018-03-04T15:00:36.185Z,40.03
2018-03-04T15:03:03.755Z,37.13
2018-03-04T15:05:31.324Z,36.50
2018-03-04T15:07:59.023Z,42.43
2018-03-04T15:10:26.711Z,37.23
2018-03-04T15:12:54.384Z,29.90
2018-03-04T15:15:22.097Z,36.70
2018-03-04T15:17:49.840Z,36.03
2018-03-04T15:20:17.614Z,38.03
2018-03-04T15:22:45.181Z,40.00
2018-03-04T15:25:12.970Z,41.37
2018-03-04T15:27:40.636Z,38.40
2018-03-04T15:30:08.311Z,41.33
2018-03-04T15:32:35.968Z,39.67
2018-03-04T15:35:03.666Z,35.20
2018-03-04T15:37:31.402Z,39.13
2018-03-04T15:39:59.124Z,38.83
2018-03-04T15:42:26.788Z,39.07
2018-03-04T15:44:54.354Z,39.27
2018-03-04T15:47:22.149Z,39.63
2018-03-04T15:49:49.801Z,38.60
2018-03-04T15:52:17.490Z,36.67
2018-03-04T15:54:45.064Z,37.53
2018-03-04T15:57:12.805Z,37.07
2018-03-04T15:59:40.387Z,35.30
2018-03-04T16:02:08.061Z,34.83
2018-03-04T16:04:35.762Z,35.27
2018-03-04T16:07:03.519Z,37.27
2018-03-04T16:09:31.126Z,37.90
2018-03-04T16:11:58.799Z,39.33
2018-03-04T16:14:26.476Z,43.33
2018-03-04T16:16:54.141Z,42.47
2018-03-04T16:19:21.930Z,45.40
2018-03-04T16:21:49.501Z,44.67
2018-03-04T16:24:17.159Z,45.10
2018-03-04T16:26:44.853Z,41.67
2018-03-04T16:29:12.426Z,49.53
2018-03-04T16:31:40.089Z,45.23
2018-03-04T16:34:07.771Z,48.43
2018-03-04T16:36:35.454Z,48.80
2018-03-04T16:39:03.099Z,36.50
2018-03-04T16:41:30.716Z,45.80
2018-03-04T16:43:58.309Z,43.83
2018-03-04T16:46:26.071Z,51.03
2018-03-04T16:48:53.725Z,37.40
2018-03-04T16:51:21.504Z,50.67
2018-03-04T16:53:49.182Z,50.03
2018-03-04T16:56:16.964Z,44.93
2018-03-04T16:58:44.740Z,50.27
2018-03-04T17:01:12.559Z,46.17
2018-03-04T17:03:40.129Z,44.53
2018-03-04T17:06:07.765Z,49.77
2018-03-04T17:08:35.447Z,52.17
2018-03-04T17:11:03.217Z,43.07
2018-03-04T17:13:30.794Z,52.67
2018-03-04T17:15:58.479Z,50.40
2018-03-04T17:18:26.240Z,51.03
2018-03-04T17:20:53.835Z,51.70
2018-03-04T17:23:21.475Z,54.80
2018-03-04T17:25:49.166Z,53.77
2018-03-04T17:28:16.848Z,54.83
2018-03-04T17:30:44.441Z,51.03
2018-03-04T17:33:12.005Z,50.70
2018-03-04T17:35:39.654Z,53.70
2018-03-04T17:38:07.342Z,51.60
2018-03-04T17:40:34.964Z,50.37
2018-03-04T17:43:02.554Z,48.53
2018-03-04T17:45:30.374Z,47.13
2018-03-04T17:47:58.030Z,48.17
2018-03-04T17:50:25.592Z,49.27
2018-03-04T17:52:53.215Z,51.00
2018-03-04T17:55:20.924Z,41.07
2018-03-04T17:57:48.616Z,53.43
2018-03-04T18:00:16.253Z,53.10
2018-03-04T18:02:43.862Z,54.00
2018-03-04T18:05:11.675Z,50.17
2018-03-04T18:07:39.552Z,53.50
2018-03-04T18:10:07.208Z,53.40
2018-03-04T18:12:34.901Z,55.80
2018-03-04T18:15:02.566Z,55.93
2018-03-04T18:17:30.149Z,53.40
2018-03-04T18:19:57.930Z,54.33
2018-03-04T18:22:25.654Z,48.83
2018-03-04T18:24:53.237Z,47.53
2018-03-04T18:27:20.955Z,53.90
2018-03-04T18:29:48.837Z,50.77
2018-03-04T18:32:16.400Z,53.20
2018-03-04T18:34:44.287Z,53.37
2018-03-04T18:37:11.974Z,55.53
2018-03-04T18:39:39.718Z,54.10
2018-03-04T18:42:07.453Z,50.93
2018-03-04T18:44:35.093Z,54.97
2018-03-04T18:47:02.766Z,54.23
2018-03-04T18:49:30.444Z,52.67
2018-03-04T18:51:58.110Z,50.80
2018-03-04T18:54:25.869Z,54.43
2018-03-04T18:56:53.686Z,48.87
2018-03-04T18:59:21.451Z,50.77
2018-03-04T19:01:49.072Z,51.80
2018-03-04T19:04:16.801Z,51.40
2018-03-04T19:06:44.466Z,37.93
2018-03-04T19:09:12.153Z,50.40
2018-03-04T19:11:39.827Z,51.87
2018-03-04T19:14:07.574Z,53.20
2018-03-04T19:16:35.304Z,55.20
2018-03-04T19:19:03.982Z,51.50
2018-03-04T19:21:31.654Z,48.13
2018-03-04T19:23:59.339Z,49.13
2018-03-04T19:26:26.968Z,53.20
2018-03-04T19:28:54.684Z,49.13
2018-03-04T19:31:22.360Z,49.80
2018-03-04T19:33:50.032Z,44.87
2018-03-04T19:36:17.648Z,48.33
2018-03-04T19:38:45.437Z,46.03
2018-03-04T19:41:13.186Z,49.80
2018-03-04T19:43:40.944Z,53.57
2018-03-04T19:46:08.533Z,49.73
2018-03-04T19:48:36.194Z,47.73
2018-03-04T19:51:03.843Z,50.37
2018-03-04T19:53:31.440Z,47.67
2018-03-04T19:55:59.116Z,53.27
2018-03-04T19:58:27.005Z,51.10
2018-03-04T20:00:54.738Z,49.70
2018-03-04T20:03:22.326Z,50.40
2018-03-04T20:05:50.016Z,47.70
2018-03-04T20:08:17.801Z,49.93
2018-03-04T20:10:45.579Z,50.00
2018-03-04T20:13:13.358Z,47.80
2018-03-04T20:15:40.984Z,46.47
2018-03-04T20:18:08.655Z,47.67
2018-03-04T20:20:36.274Z,47.97
2018-03-04T20:23:03.962Z,44.97
2018-03-04T20:25:31.632Z,45.50
2018-03-04T20:27:59.294Z,45.83
2018-03-04T20:30:26.863Z,43.47
2018-03-04T20:32:54.659Z,43.73
2018-03-04T20:35:22.323Z,44.53
2018-03-04T20:37:50.058Z,44.03
2018-03-04T20:40:17.685Z,45.57
2018-03-04T20:42:45.325Z,43.90
2018-03-04T20:45:13.036Z,43.13
2018-03-04T20:47:40.607Z,38.10
2018-03-04T20:50:08.274Z,38.83
2018-03-04T20:52:35.889Z,41.77
2018-03-04T20:55:03.599Z,41.80
2018-03-04T20:57:31.218Z,39.07
2018-03-04T20:59:58.886Z,39.73
2018-03-04T21:02:26.464Z,38.60
2018-03-04T21:04:54.238Z,37.43
2018-03-04T21:07:21.983Z,36.07
2018-03-04T21:09:49.703Z,34.43
2018-03-04T21:12:17.324Z,33.87
2018-03-04T21:14:44.939Z,35.80
2018-03-04T21:17:12.517Z,34.00
2018-03-04T21:19:40.124Z,35.93
2018-03-04T21:22:07.707Z,38.40
2018-03-04T21:24:35.328Z,33.90
2018-03-04T21:27:02.892Z,31.70
2018-03-04T21:29:30.529Z,24.43
2018-03-04T21:31:58.100Z,33.93
2018-03-04T21:34:25.829Z,30.90
2018-03-04T21:36:53.506Z,29.57
2018-03-04T21:39:21.178Z,29.87
2018-03-04T21:41:48.770Z,31.03
2018-03-04T21:44:16.431Z,29.70
2018-03-04T21:46:44.210Z,32.23
2018-03-04T21:49:11.951Z,29.70
2018-03-04T21:51:39.550Z,30.90
2018-03-04T21:54:07.229Z,32.20
2018-03-04T21:56:35.015Z,28.47
2018-03-04T21:59:02.692Z,28.30
2018-03-04T22:01:30.357Z,30.87
2018-03-04T22:03:57.945Z,31.90
2018-03-04T22:06:25.610Z,30.73
2018-03-04T22:08:53.275Z,28.60
2018-03-04T22:11:21.066Z,29.80
2018-03-04T22:13:48.649Z,29.90
2018-03-04T22:16:16.312Z,33.33
2018-03-04T22:18:43.895Z,30.07
2018-03-04T22:21:11.771Z,31.10
2018-03-04T22:23:39.444Z,32.33
2018-03-04T22:26:07.106Z,31.67
2018-03-04T22:28:34.749Z,31.90
2018-03-04T22:31:02.365Z,30.83
2018-03-04T22:33:29.946Z,34.67
2018-03-04T22:35:57.631Z,30.20
2018-03-04T22:38:25.256Z,31.63
2018-03-04T22:40:52.842Z,32.00
2018-03-04T22:43:20.419Z,30.87
2018-03-04T22:45:48.029Z,32.43
2018-03-04T22:48:15.683Z,34.60
2018-03-04T22:50:43.356Z,32.43
2018-03-04T22:53:11.146Z,32.83
2018-03-04T22:55:38.810Z,36.13
2018-03-04T22:58:06.476Z,34.57
2018-03-04T23:00:34.277Z,31.13
2018-03-04T23:03:02.008Z,31.77
2018-03-04T23:05:29.580Z,32.60
2018-03-04T23:07:57.337Z,34.30
2018-03-04T23:10:24.926Z,34.13
2018-03-04T23:12:52.538Z,32.77
2018-03-04T23:15:20.217Z,35.20
2018-03-04T23:17:47.900Z,31.87
2018-03-04T23:20:15.480Z,32.50
2018-03-04T23:22:43.150Z,32.27
2018-03-04T23:25:10.881Z,33.07
2018-03-04T23:27:38.705Z,32.10
2018-03-04T23:30:06.383Z,32.80
2018-03-04T23:32:34.047Z,31.20
2018-03-04T23:35:01.729Z,29.30
2018-03-04T23:37:29.333Z,28.80
2018-03-04T23:39:56.981Z,29.60
2018-03-04T23:42:24.649Z,29.90
2018-03-04T23:44:52.324Z,32.63
2018-03-04T23:47:20.010Z,28.23
2018-03-04T23:49:47.673Z,28.07
2018-03-04T23:52:15.436Z,28.97
2018-03-04T23:54:43.238Z,26.67
2018-03-04T23:57:11.095Z,26.43
2018-03-04T23:59:38.680Z,27.00
